LPST

Sintra Airport

Portugal
TAF LPST 221405Z 2215/2224 34015KT 9999 SCT012 BKN020 TEMPO 2215/2224 35018G28KT 2000 -RADZ BR SCT005 BKN008
Issued Valid From Valid To
Jan-22 @ 14:05 UTC
(3 hours ago)
Jan-22 @ 15:00 UTC
(2 hours ago)
Jan-23 @ 00:00 UTC
(in 7 hours)
Jan-22 @ 15:00 to Jan-23 @ 00:00
TAF LPST 221405Z 2215/2224 34015KT 9999 SCT012 BKN020
Wind Visibility Clouds
340° at 15 knots 10,000+ meters
  • Scattered at 1,200' AGL
  • Broken at 2,000' AGL
Temporary Jan-22 @ 15:00 to Jan-23 @ 00:00
TEMPO 2215/2224 35018G28KT 2000 -RADZ BR SCT005 BKN008
Wind Visibility Clouds Conditions
350° at 18 knots
 Gusting to 28 knots
1,996 meters
  • Scattered at 500' AGL
  • Broken at 800' AGL
  • Light Rain
  • Light Drizzle
  • Mist
TAF LPST 221405Z 2215/2224 34015KT 9999 SCT012 BKN020 TEMPO 2215/2224 35018G28KT 2000 -RADZ BR SCT005 BKN008
Issued Jan-22 @ 14:05 UTC
(3 hours ago)
Valid From Jan-22 @ 15:00 UTC
(2 hours ago)
Valid To Jan-23 @ 00:00 UTC
(in 7 hours)
Jan-22 @ 15:00 - Jan-23 @ 00:00
Wind Visibility
340° at 15 knots 10,000+ meters
Clouds
  • Scattered at 1,200' AGL
  • Broken at 2,000' AGL
Temporary Jan-22 @ 15:00 - Jan-23 @ 00:00
Wind Visibility
350° at 18 knots
 Gusting to 28 knots
1,996 meters
Clouds
  • Scattered at 500' AGL
  • Broken at 800' AGL
Conditions
  • Light Rain
  • Light Drizzle
  • Mist